Time;durP1;ratioP1;P1;durP2;ratioP2;P2;SDS_P1;SDS_P2;PMS_P1;PMS_P2;Temp;Humidity;BMP_temperature;BMP_pressure;BME280_temperature;BME280_humidity;BME280_pressure;Samples;Min_cycle;Max_cycle;Signal;HPM_P1;HPM_P2
2021/12/26 00:01:03;;;;;;;36.00;13.30;;;;;;;-7.51;80.24;98223.34;102695;1333;22585;-83
2021/12/26 00:03:32;;;;;;;31.50;12.30;;;;;;;-7.42;80.13;98226.77;102753;1327;138971;-83
2021/12/26 00:06:05;;;;;;;27.90;11.90;;;;;;;-7.33;80.08;98224.23;102728;1332;22612;-83
2021/12/26 00:08:36;;;;;;;63.60;26.00;;;;;;;-7.30;78.63;98225.88;102332;1330;138191;-83
2021/12/26 00:11:04;;;;;;;68.90;26.60;;;;;;;-7.40;77.52;98229.23;102645;1327;22625;-83
2021/12/26 00:13:31;;;;;;;60.20;23.60;;;;;;;-7.54;77.39;98230.52;102960;1327;22596;-83
2021/12/26 00:15:59;;;;;;;62.90;22.40;;;;;;;-7.62;77.32;98226.98;102356;1332;206832;-83
2021/12/26 00:18:26;;;;;;;57.70;23.20;;;;;;;-7.61;77.41;98222.63;102523;1330;23517;-83
2021/12/26 00:20:52;;;;;;;53.80;20.90;;;;;;;-7.56;77.41;98220.26;102523;1330;138742;-83
2021/12/26 00:23:21;;;;;;;56.10;19.70;;;;;;;-7.56;77.52;98219.75;102757;1324;22686;-82
2021/12/26 00:25:48;;;;;;;62.60;25.20;;;;;;;-7.52;77.31;98224.45;102650;1327;22677;-83
2021/12/26 00:28:15;;;;;;;75.40;25.60;;;;;;;-7.47;77.44;98222.60;102680;1331;138040;-83
2021/12/26 00:30:43;;;;;;;72.80;27.50;;;;;;;-7.42;77.28;98224.54;102783;1332;22596;-83
2021/12/26 00:33:10;;;;;;;78.30;28.00;;;;;;;-7.47;76.47;98224.02;102574;1328;138011;-83
2021/12/26 00:35:36;;;;;;;66.50;23.80;;;;;;;-7.54;76.11;98221.20;102546;1333;22723;-82
2021/12/26 00:38:03;;;;;;;58.30;21.70;;;;;;;-7.58;76.88;98223.80;102517;1333;25453;-83
2021/12/26 00:40:32;;;;;;;76.70;26.60;;;;;;;-7.65;76.36;98217.00;102727;1332;138103;-83
2021/12/26 00:42:58;;;;;;;73.80;27.60;;;;;;;-7.83;75.74;98214.36;102644;1324;22586;-83
2021/12/26 00:45:25;;;;;;;74.50;24.40;;;;;;;-7.96;76.41;98219.25;102650;1333;137522;-83
2021/12/26 00:47:52;;;;;;;60.40;22.40;;;;;;;-8.09;75.97;98223.82;102691;1327;25274;-82
2021/12/26 00:50:24;;;;;;;55.20;20.10;;;;;;;-8.22;76.19;98224.82;102705;1332;24048;-82
2021/12/26 00:52:51;;;;;;;52.60;19.00;;;;;;;-8.31;76.81;98228.91;102739;1324;137905;-82
2021/12/26 00:55:18;;;;;;;50.00;18.40;;;;;;;-8.40;76.45;98225.95;102469;1327;24494;-83
2021/12/26 00:57:46;;;;;;;49.10;18.70;;;;;;;-8.45;76.63;98225.54;102747;1327;138946;-82
2021/12/26 01:00:22;;;;;;;40.60;17.70;;;;;;;-8.47;77.02;98227.84;102593;1331;25346;-82
2021/12/26 01:02:49;;;;;;;48.20;18.20;;;;;;;-8.47;77.00;98232.58;102411;1331;138234;-81
2021/12/26 01:05:16;;;;;;;47.70;17.00;;;;;;;-8.47;77.01;98234.36;102816;1324;25269;-82
2021/12/26 01:10:14;;;;;;;38.00;15.60;;;;;;;-8.46;76.95;98237.02;102762;1328;138214;-82
2021/12/26 01:12:41;;;;;;;42.40;14.70;;;;;;;-8.44;77.06;98236.50;102617;1331;22590;-82
2021/12/26 01:15:10;;;;;;;46.60;17.30;;;;;;;-8.39;77.42;98236.27;102538;1330;138274;-82
2021/12/26 01:17:47;;;;;;;40.30;15.00;;;;;;;-8.36;77.12;98236.38;102211;1330;22648;-81
2021/12/26 01:20:40;;;;;;;41.40;14.30;;;;;;;-8.37;76.41;98231.56;102263;1327;22583;-82
2021/12/26 01:23:08;;;;;;;35.00;14.00;;;;;;;-8.41;77.03;98227.48;102451;1329;137912;-82
2021/12/26 01:25:35;;;;;;;31.40;13.40;;;;;;;-8.43;77.11;98225.52;102688;1331;23102;-82
2021/12/26 01:28:04;;;;;;;36.50;12.70;;;;;;;-8.37;77.53;98223.65;102615;1332;138323;-81
2021/12/26 01:30:32;;;;;;;35.50;13.70;;;;;;;-8.32;77.02;98221.60;102729;1326;22660;-82
2021/12/26 01:32:59;;;;;;;39.80;14.20;;;;;;;-8.25;77.39;98215.88;102722;1327;138461;-82
2021/12/26 01:35:44;;;;;;;40.80;14.80;;;;;;;-8.17;77.05;98215.42;102431;1333;24265;-82
2021/12/26 01:38:22;;;;;;;46.00;16.90;;;;;;;-8.15;76.35;98214.14;102138;1328;25591;-82
2021/12/26 01:40:57;;;;;;;44.10;18.30;;;;;;;-8.12;76.64;98213.33;102303;1332;138209;-81
2021/12/26 01:43:48;;;;;;;49.40;18.90;;;;;;;-8.11;76.26;98212.95;102817;1332;25559;-82
2021/12/26 01:46:28;;;;;;;58.50;22.00;;;;;;;-8.16;75.84;98211.02;102485;1329;138759;-82
2021/12/26 01:49:10;;;;;;;68.00;24.60;;;;;;;-8.32;74.68;98208.70;102562;1332;22648;-82
2021/12/26 01:51:55;;;;;;;60.40;22.70;;;;;;;-8.41;75.48;98207.04;102439;1331;137618;-82
2021/12/26 01:54:43;;;;;;;74.90;25.60;;;;;;;-8.44;75.37;98207.11;102263;1327;22686;-82
2021/12/26 01:57:11;;;;;;;50.30;19.30;;;;;;;-8.51;75.57;98203.33;102491;1333;138045;-82
2021/12/26 01:59:40;;;;;;;47.20;17.90;;;;;;;-8.57;75.54;98205.77;102511;1331;22584;-82
2021/12/26 02:02:33;;;;;;;52.50;17.90;;;;;;;-8.65;75.39;98206.48;102426;1330;22810;-81
2021/12/26 02:05:00;;;;;;;54.80;21.30;;;;;;;-8.72;75.51;98213.41;102760;1326;138004;-82
2021/12/26 02:07:27;;;;;;;54.10;19.60;;;;;;;-8.79;75.64;98209.25;102707;1333;22738;-82
2021/12/26 02:09:56;;;;;;;54.40;20.40;;;;;;;-8.84;75.89;98210.02;102046;1333;138264;-81
2021/12/26 02:12:24;;;;;;;46.80;16.90;;;;;;;-8.90;75.71;98213.65;102784;1331;22783;-81
2021/12/26 02:14:53;;;;;;;48.10;16.60;;;;;;;-8.98;75.60;98212.70;102728;1328;139211;-81
2021/12/26 02:17:27;;;;;;;55.60;19.50;;;;;;;-9.03;75.98;98210.86;102790;1327;22657;-81
2021/12/26 02:20:20;;;;;;;49.20;18.80;;;;;;;-9.02;76.10;98220.30;102863;1333;22748;-81
2021/12/26 02:22:53;;;;;;;49.20;16.60;;;;;;;-9.00;76.18;98216.74;102798;1327;138709;-81
2021/12/26 02:27:31;;;;;;;44.70;14.80;;;;;;;-8.98;76.04;98216.83;103044;1331;24242;-81
2021/12/26 02:28:21;;;;;;;41.40;15.30;;;;;;;-8.97;75.97;98219.55;102780;1329;139009;-80
2021/12/26 02:30:49;;;;;;;41.00;15.10;;;;;;;-8.93;76.47;98218.65;102648;1330;23531;-81
2021/12/26 02:33:16;;;;;;;35.00;13.70;;;;;;;-8.82;77.08;98217.39;102205;1330;138720;-81
2021/12/26 02:35:43;;;;;;;34.80;13.60;;;;;;;-8.72;76.57;98218.83;102293;1333;22619;-80
2021/12/26 02:38:10;;;;;;;27.50;12.80;;;;;;;-8.68;76.80;98216.39;102599;1333;22736;-80
2021/12/26 02:40:38;;;;;;;33.40;12.20;;;;;;;-8.64;76.44;98215.20;102420;1327;138097;-80
2021/12/26 02:43:05;;;;;;;37.30;13.90;;;;;;;-8.61;76.39;98213.48;102813;1333;24265;-80
2021/12/26 02:45:33;;;;;;;33.80;13.10;;;;;;;-8.60;76.49;98211.34;102684;1333;138152;-81
2021/12/26 02:48:00;;;;;;;28.70;11.30;;;;;;;-8.59;76.48;98208.92;103352;1332;23567;-81
2021/12/26 02:50:30;;;;;;;28.20;11.70;;;;;;;-8.59;76.39;98206.12;102679;1333;24180;-81
2021/12/26 02:52:58;;;;;;;30.00;11.70;;;;;;;-8.65;75.93;98202.55;102948;1331;137723;-81
2021/12/26 02:55:26;;;;;;;26.60;11.40;;;;;;;-8.74;76.31;98207.39;102508;1333;25258;-81
2021/12/26 02:57:55;;;;;;;32.10;11.60;;;;;;;-8.83;76.09;98208.14;102583;1333;137750;-81
2021/12/26 03:00:25;;;;;;;24.10;10.20;;;;;;;-8.91;76.83;98211.66;102735;1333;22632;-81
2021/12/26 03:03:07;;;;;;;22.40;9.90;;;;;;;-8.95;76.70;98212.99;102493;1331;139338;-80
2021/12/26 03:05:37;;;;;;;23.20;10.80;;;;;;;-8.96;76.93;98215.55;102523;1333;24005;-81
2021/12/26 03:08:09;;;;;;;25.10;9.80;;;;;;;-8.95;76.80;98216.94;102514;1332;24654;-80
2021/12/26 03:10:36;;;;;;;23.20;10.40;;;;;;;-8.95;76.75;98220.08;102582;1333;138018;-80
2021/12/26 03:13:05;;;;;;;32.20;11.30;;;;;;;-8.92;76.95;98219.98;102673;1331;145233;-80
2021/12/26 03:15:33;;;;;;;27.80;11.50;;;;;;;-8.85;77.15;98226.26;103053;1324;22590;-81
2021/12/26 03:18:00;;;;;;;26.20;10.50;;;;;;;-8.78;77.56;98223.42;102796;1330;24235;-81
2021/12/26 03:20:32;;;;;;;22.90;11.10;;;;;;;-8.71;77.87;98224.61;102521;1333;138950;-80
2021/12/26 03:23:01;;;;;;;19.90;8.80;;;;;;;-8.63;77.76;98225.43;102797;1333;25589;-81
2021/12/26 03:25:29;;;;;;;20.80;8.60;;;;;;;-8.52;77.93;98229.12;102498;1332;138619;-80
2021/12/26 03:27:55;;;;;;;20.80;9.10;;;;;;;-8.43;78.17;98231.52;102966;1331;22774;-81
2021/12/26 03:30:25;;;;;;;19.60;8.00;;;;;;;-8.32;77.78;98233.25;102371;1331;139071;-81
2021/12/26 03:32:54;;;;;;;17.10;7.60;;;;;;;-8.23;78.00;98231.73;102804;1324;24236;-81
2021/12/26 03:35:23;;;;;;;19.70;8.30;;;;;;;-8.16;77.52;98232.55;102931;1332;137701;-81
2021/12/26 03:37:51;;;;;;;18.60;8.30;;;;;;;-8.11;77.85;98233.03;102915;1331;22849;-82
2021/12/26 03:40:52;;;;;;;25.60;9.60;;;;;;;-8.13;77.34;98232.11;102446;1334;24334;-81
2021/12/26 03:43:20;;;;;;;20.70;8.00;;;;;;;-8.18;76.93;98226.59;102374;1333;137356;-81
2021/12/26 03:45:48;;;;;;;19.70;8.70;;;;;;;-8.23;77.10;98223.48;102486;1332;25434;-80
2021/12/26 03:48:16;;;;;;;20.60;10.00;;;;;;;-8.29;77.40;98220.79;102694;1327;137512;-80
2021/12/26 03:50:43;;;;;;;21.30;10.30;;;;;;;-8.36;77.37;98224.59;102887;1330;22714;-81
2021/12/26 03:53:11;;;;;;;18.90;8.40;;;;;;;-8.47;77.54;98222.16;102946;1332;138952;-81
2021/12/26 03:55:39;;;;;;;21.90;8.10;;;;;;;-8.58;77.46;98223.47;102784;1331;22614;-80
2021/12/26 03:58:07;;;;;;;16.10;8.60;;;;;;;-8.68;77.60;98224.15;102624;1332;22599;-81
2021/12/26 04:00:36;;;;;;;20.40;8.30;;;;;;;-8.75;78.08;98228.77;102394;1328;138038;-81
2021/12/26 04:03:02;;;;;;;16.60;8.40;;;;;;;-8.76;78.38;98233.98;102776;1331;26544;-81
2021/12/26 04:05:29;;;;;;;17.20;8.60;;;;;;;-8.76;78.21;98236.81;102437;1333;138280;-81
2021/12/26 04:07:56;;;;;;;16.50;8.00;;;;;;;-8.77;78.17;98240.05;103017;1330;22679;-81
2021/12/26 04:10:23;;;;;;;18.50;8.30;;;;;;;-8.73;78.30;98240.27;102806;1330;25538;-81
2021/12/26 04:12:53;;;;;;;16.40;7.90;;;;;;;-8.69;78.40;98242.69;102890;1330;138669;-81
2021/12/26 04:15:22;;;;;;;15.60;6.40;;;;;;;-8.63;78.29;98247.48;102622;1330;25529;-81
2021/12/26 04:17:51;;;;;;;17.10;7.10;;;;;;;-8.60;77.92;98247.73;102989;1330;138157;-81
2021/12/26 04:20:19;;;;;;;17.30;7.20;;;;;;;-8.55;78.01;98250.34;102644;1333;24263;-81
2021/12/26 04:22:45;;;;;;;14.40;6.30;;;;;;;-8.48;77.87;98250.27;102765;1333;22839;-81
2021/12/26 04:25:12;;;;;;;20.00;7.10;;;;;;;-8.44;77.55;98252.89;102433;1332;138176;-81
2021/12/26 04:27:38;;;;;;;20.10;8.40;;;;;;;-8.43;77.03;98253.65;102632;1331;25531;-81
2021/12/26 04:30:09;;;;;;;22.50;8.60;;;;;;;-8.42;76.32;98258.53;102501;1332;137320;-81
2021/12/26 04:32:35;;;;;;;23.60;10.00;;;;;;;-8.50;75.90;98263.77;102961;1333;22683;-81
2021/12/26 04:35:03;;;;;;;23.80;8.90;;;;;;;-8.57;75.38;98268.13;102938;1332;22815;-81
2021/12/26 04:37:29;;;;;;;21.70;9.60;;;;;;;-8.66;75.48;98267.39;103007;1330;137223;-81
2021/12/26 04:39:56;;;;;;;24.40;9.00;;;;;;;-8.73;75.57;98266.09;102754;1325;22601;-81
2021/12/26 04:42:24;;;;;;;16.90;7.30;;;;;;;-8.80;75.80;98262.80;102365;1333;137688;-80
2021/12/26 04:45:15;;;;;;;20.20;7.60;;;;;;;-8.84;76.03;98270.13;102899;1331;22614;-81
2021/12/26 04:48:07;;;;;;;17.10;7.60;;;;;;;-8.90;76.25;98274.39;102846;1332;137840;-81
2021/12/26 04:50:34;;;;;;;14.00;6.20;;;;;;;-8.95;76.04;98273.16;102857;1326;24301;-81
2021/12/26 04:53:04;;;;;;;16.10;7.10;;;;;;;-9.01;75.91;98271.54;102786;1330;22667;-81
2021/12/26 04:55:31;;;;;;;13.50;6.40;;;;;;;-9.06;75.65;98278.30;103017;1329;137923;-81
2021/12/26 04:57:58;;;;;;;18.00;7.40;;;;;;;-9.09;75.82;98280.62;102853;1329;22647;-81
2021/12/26 05:00:28;;;;;;;18.10;7.40;;;;;;;-9.12;75.56;98279.50;102376;1333;138104;-81
2021/12/26 05:02:56;;;;;;;19.20;7.60;;;;;;;-9.20;74.72;98283.59;102167;1333;22626;-81
2021/12/26 05:05:26;;;;;;;18.60;7.50;;;;;;;-9.23;75.53;98288.81;102303;1333;138342;-80
2021/12/26 05:07:54;;;;;;;20.60;8.30;;;;;;;-9.19;75.86;98288.63;102742;1330;24273;-81
2021/12/26 05:10:24;;;;;;;37.70;13.90;;;;;;;-9.18;75.53;98292.10;102699;1329;24251;-80
2021/12/26 05:12:51;;;;;;;33.10;13.20;;;;;;;-9.24;74.95;98288.38;102701;1331;138129;-81
2021/12/26 05:15:17;;;;;;;34.30;13.50;;;;;;;-9.31;74.55;98282.83;102387;1332;25543;-80
2021/12/26 05:17:44;;;;;;;29.30;11.90;;;;;;;-9.26;75.47;98280.45;102362;1332;138274;-80
2021/12/26 05:20:12;;;;;;;26.80;10.80;;;;;;;-9.19;75.59;98276.17;102467;1332;22956;-80
2021/12/26 05:22:38;;;;;;;24.90;9.40;;;;;;;-9.10;75.49;98276.33;102498;1333;23272;-80
2021/12/26 05:25:07;;;;;;;25.50;9.00;;;;;;;-9.12;74.97;98275.61;102533;1327;138017;-80
2021/12/26 05:27:34;;;;;;;18.80;8.90;;;;;;;-9.22;74.49;98273.83;102805;1331;22755;-81
2021/12/26 05:30:03;;;;;;;19.30;8.60;;;;;;;-9.30;74.63;98273.24;102556;1329;138023;-80
2021/12/26 05:32:30;;;;;;;17.90;7.70;;;;;;;-9.28;75.17;98267.59;102557;1330;22650;-81
2021/12/26 05:34:57;;;;;;;19.20;8.40;;;;;;;-9.23;75.36;98270.89;102426;1330;22628;-81
2021/12/26 05:37:23;;;;;;;24.10;10.30;;;;;;;-9.15;75.71;98262.54;102481;1327;137483;-81
2021/12/26 05:39:50;;;;;;;28.00;11.50;;;;;;;-9.06;75.44;98265.61;102466;1333;25816;-81
2021/12/26 05:42:17;;;;;;;34.30;13.90;;;;;;;-9.08;74.82;98268.21;102541;1331;137538;-81
2021/12/26 05:44:44;;;;;;;29.60;13.50;;;;;;;-9.23;74.33;98269.97;102578;1332;25521;-81
2021/12/26 05:47:11;;;;;;;31.80;12.80;;;;;;;-9.39;74.83;98267.98;102592;1333;138256;-81
2021/12/26 05:49:57;;;;;;;30.40;12.70;;;;;;;-9.60;75.34;98270.85;102375;1329;28850;-80
2021/12/26 05:52:25;;;;;;;30.70;12.10;;;;;;;-9.73;75.69;98275.92;102594;1331;22712;-80
2021/12/26 05:55:10;;;;;;;26.60;10.90;;;;;;;-9.82;76.37;98277.66;102639;1330;137858;-80
2021/12/26 05:57:37;;;;;;;21.80;10.00;;;;;;;-9.80;77.03;98280.02;102766;1324;22753;-80
2021/12/26 06:00:07;;;;;;;26.30;10.50;;;;;;;-9.75;77.16;98277.86;102681;1327;138203;-80
2021/12/26 06:02:42;;;;;;;20.70;9.10;;;;;;;-9.68;77.63;98278.38;102356;1327;22654;-79
2021/12/26 06:05:09;;;;;;;21.00;9.30;;;;;;;-9.61;77.67;98279.58;102369;1333;22977;-80
2021/12/26 06:07:37;;;;;;;21.20;7.90;;;;;;;-9.52;77.94;98280.26;102473;1331;138794;-80
2021/12/26 06:10:05;;;;;;;19.50;7.90;;;;;;;-9.45;77.45;98277.55;102648;1331;23095;-80
2021/12/26 06:12:32;;;;;;;21.20;8.40;;;;;;;-9.42;77.23;98277.30;102644;1328;138269;-80
2021/12/26 06:14:59;;;;;;;21.90;9.50;;;;;;;-9.32;77.59;98278.80;102615;1330;24546;-80
2021/12/26 06:17:26;;;;;;;18.30;8.10;;;;;;;-9.25;77.49;98277.77;102591;1330;138138;-80
2021/12/26 06:20:03;;;;;;;21.30;8.60;;;;;;;-9.20;77.43;98281.65;102632;1331;22890;-80
2021/12/26 06:22:33;;;;;;;20.30;8.60;;;;;;;-9.12;77.54;98285.70;102162;1332;23211;-81
2021/12/26 06:25:06;;;;;;;25.00;8.60;;;;;;;-9.05;77.51;98286.83;102682;1330;137928;-81
2021/12/26 06:27:45;;;;;;;18.30;8.20;;;;;;;-9.09;76.72;98286.06;102671;1332;22743;-81
2021/12/26 06:30:30;;;;;;;20.00;8.50;;;;;;;-9.16;76.46;98289.95;102515;1329;138104;-81
2021/12/26 06:33:28;;;;;;;19.80;7.50;;;;;;;-9.19;76.87;98291.24;102414;1326;26823;-80
2021/12/26 06:36:14;;;;;;;21.00;6.90;;;;;;;-9.20;76.86;98288.53;102166;1324;138079;-80
2021/12/26 06:38:59;;;;;;;21.50;7.50;;;;;;;-9.21;76.69;98291.11;102448;1329;25090;-80
2021/12/26 06:41:43;;;;;;;17.50;6.40;;;;;;;-9.28;76.24;98291.86;102634;1327;137657;-81
2021/12/26 06:44:49;;;;;;;17.30;7.40;;;;;;;-9.44;75.88;98295.80;102532;1331;22800;-81
2021/12/26 06:47:25;;;;;;;23.30;8.30;;;;;;;-9.59;75.96;98303.08;102330;1327;137831;-80
2021/12/26 06:49:52;;;;;;;21.00;8.90;;;;;;;-9.71;76.40;98302.48;102906;1330;22899;-80
2021/12/26 06:52:19;;;;;;;21.50;7.40;;;;;;;-9.84;76.56;98301.21;102385;1331;22721;-80
2021/12/26 06:54:47;;;;;;;19.10;7.40;;;;;;;-9.93;76.86;98304.17;102472;1330;137475;-81
2021/12/26 06:57:14;;;;;;;17.70;7.90;;;;;;;-9.99;77.12;98302.71;102675;1327;22885;-81
2021/12/26 06:59:40;;;;;;;19.10;6.80;;;;;;;-10.02;77.19;98303.30;102728;1324;138387;-80
2021/12/26 07:02:07;;;;;;;18.30;7.50;;;;;;;-10.01;77.78;98307.95;102667;1331;24042;-81
2021/12/26 07:04:48;;;;;;;17.90;7.70;;;;;;;-9.97;77.50;98310.27;102562;1332;25555;-81
2021/12/26 07:07:16;;;;;;;20.80;8.20;;;;;;;-9.90;77.64;98311.66;102414;1331;138199;-80
2021/12/26 07:09:43;;;;;;;16.60;7.40;;;;;;;-9.87;77.21;98314.11;102397;1331;22649;-80
2021/12/26 07:12:13;;;;;;;18.00;7.50;;;;;;;-9.89;77.24;98316.52;102459;1327;138037;-80
2021/12/26 07:14:46;;;;;;;14.10;6.70;;;;;;;-9.87;77.62;98312.69;102392;1331;22850;-80
2021/12/26 07:17:12;;;;;;;19.30;7.80;;;;;;;-9.83;77.69;98319.41;102602;1331;25578;-80
2021/12/26 07:19:41;;;;;;;17.10;7.70;;;;;;;-9.76;77.91;98323.26;102769;1324;137933;-80
2021/12/26 07:22:13;;;;;;;17.40;7.80;;;;;;;-9.71;77.47;98328.64;102656;1330;24271;-80
2021/12/26 07:24:43;;;;;;;20.70;7.60;;;;;;;-9.67;77.57;98332.35;102315;1328;138039;-80
2021/12/26 07:27:14;;;;;;;24.40;7.60;;;;;;;-9.64;77.53;98334.08;102181;1332;24243;-80
2021/12/26 07:30:13;;;;;;;19.10;8.50;;;;;;;-9.64;77.36;98333.34;102354;1330;138309;-80
2021/12/26 07:32:40;;;;;;;20.50;8.60;;;;;;;-9.62;77.09;98335.88;102518;1331;24398;-80
2021/12/26 07:35:08;;;;;;;14.60;7.20;;;;;;;-9.59;77.65;98335.63;102530;1327;22708;-80
2021/12/26 07:37:34;;;;;;;22.10;9.80;;;;;;;-9.57;77.49;98340.68;102480;1331;137695;-80
2021/12/26 07:40:01;;;;;;;20.30;8.60;;;;;;;-9.60;77.02;98341.64;102573;1330;22927;-80
2021/12/26 07:42:28;;;;;;;21.70;9.50;;;;;;;-9.63;77.43;98346.63;102440;1327;137613;-80
2021/12/26 07:45:13;;;;;;;21.60;9.20;;;;;;;-9.63;77.66;98346.33;102502;1332;22880;-80
2021/12/26 07:47:45;;;;;;;22.70;9.30;;;;;;;-9.64;77.78;98347.26;102442;1327;137615;-80
2021/12/26 07:50:12;;;;;;;24.50;10.50;;;;;;;-9.68;77.86;98351.56;102596;1327;25655;-80
2021/12/26 07:53:05;;;;;;;24.90;11.10;;;;;;;-9.73;78.11;98352.85;102918;1324;22639;-80
2021/12/26 07:55:51;;;;;;;26.60;10.40;;;;;;;-9.76;78.30;98354.43;102402;1324;137683;-81
2021/12/26 07:58:35;;;;;;;26.90;11.30;;;;;;;-9.72;78.51;98351.36;102749;1331;22879;-81
2021/12/26 08:01:38;;;;;;;28.50;12.20;;;;;;;-9.62;78.96;98356.02;102076;1335;138514;-81
2021/12/26 08:04:37;;;;;;;39.70;13.60;;;;;;;-9.56;78.58;98352.38;102607;1328;22779;-81
2021/12/26 08:07:22;;;;;;;34.80;13.80;;;;;;;-9.53;78.27;98357.10;102585;1332;138085;-81
2021/12/26 08:09:48;;;;;;;41.30;16.00;;;;;;;-9.49;78.64;98361.20;102511;1327;22801;-81
2021/12/26 08:12:14;;;;;;;30.40;14.30;;;;;;;-9.41;78.96;98363.75;102642;1327;138438;-81
2021/12/26 08:14:41;;;;;;;24.60;13.00;;;;;;;-9.32;79.16;98356.48;102662;1329;186915;-81
2021/12/26 08:17:07;;;;;;;29.90;12.20;;;;;;;-9.12;79.93;98355.98;102812;1332;24134;-81
2021/12/26 08:19:33;;;;;;;23.10;11.20;;;;;;;-8.93;80.18;98357.55;102824;1328;138716;-81
2021/12/26 08:21:59;;;;;;;23.80;11.30;;;;;;;-8.71;80.08;98359.02;102541;1333;22772;-80
2021/12/26 08:24:26;;;;;;;20.40;10.40;;;;;;;-8.47;80.56;98355.98;102564;1330;138674;-81
2021/12/26 08:27:07;;;;;;;22.90;11.50;;;;;;;-8.28;79.81;98359.60;102872;1327;25417;-81
2021/12/26 08:29:33;;;;;;;25.60;10.50;;;;;;;-8.12;79.69;98360.46;102735;1330;138165;-81
2021/12/26 08:32:01;;;;;;;27.30;11.50;;;;;;;-7.97;79.93;98360.38;102803;1333;25337;-81
2021/12/26 08:34:27;;;;;;;30.90;10.70;;;;;;;-7.82;79.81;98361.55;102894;1329;22744;-81
2021/12/26 08:37:03;;;;;;;33.20;12.10;;;;;;;-7.70;79.54;98360.92;102823;1332;137358;-81
2021/12/26 08:39:33;;;;;;;28.30;11.90;;;;;;;-7.60;79.49;98361.13;102845;1325;22597;-81
2021/12/26 08:41:59;;;;;;;30.50;13.00;;;;;;;-7.53;79.24;98359.48;102711;1331;138789;-81
2021/12/26 08:44:41;;;;;;;28.10;10.70;;;;;;;-7.49;79.04;98366.67;103000;1332;25723;-81
2021/12/26 08:47:09;;;;;;;29.30;11.70;;;;;;;-7.45;79.11;98370.76;102730;1332;25601;-82
2021/12/26 08:49:36;;;;;;;24.60;10.50;;;;;;;-7.41;79.33;98376.94;102342;1332;137781;-82
2021/12/26 08:52:03;;;;;;;26.40;11.70;;;;;;;-7.39;79.65;98374.44;102855;1331;22784;-81
2021/12/26 08:54:33;;;;;;;28.80;11.30;;;;;;;-7.35;80.03;98373.39;102857;1324;137634;-81
2021/12/26 08:57:00;;;;;;;30.40;12.20;;;;;;;-7.31;79.79;98373.77;102950;1324;23234;-81
2021/12/26 08:59:30;;;;;;;9.20;3.90;;;;;;;-7.28;79.76;98368.35;103051;1328;23197;-78
2021/12/26 09:02:05;;;;;;;30.10;11.90;;;;;;;-6.94;83.40;98364.73;102763;1331;137084;-81
2021/12/26 09:04:31;;;;;;;33.20;14.00;;;;;;;-6.52;81.57;98363.09;102853;1333;22864;-81
2021/12/26 09:06:58;;;;;;;29.80;14.20;;;;;;;-6.32;80.29;98363.78;102584;1327;138229;-82
2021/12/26 09:09:27;;;;;;;34.10;14.70;;;;;;;-6.24;79.03;98357.23;102979;1326;23101;-82
2021/12/26 09:11:53;;;;;;;32.70;13.50;;;;;;;-6.23;78.60;98353.00;103000;1325;138186;-82
2021/12/26 09:14:20;;;;;;;29.00;13.60;;;;;;;-6.20;78.80;98353.48;102606;1331;22761;-81
2021/12/26 09:16:46;;;;;;;29.80;13.20;;;;;;;-6.19;78.28;98356.87;102819;1331;23402;-82
2021/12/26 09:19:13;;;;;;;27.10;11.80;;;;;;;-6.19;78.57;98359.16;102582;1330;137587;-81
2021/12/26 09:21:39;;;;;;;31.90;11.30;;;;;;;-6.20;78.03;98354.19;103043;1330;24331;-81
2021/12/26 09:24:06;;;;;;;30.90;14.30;;;;;;;-6.26;78.47;98349.97;102696;1330;137931;-81
2021/12/26 09:26:32;;;;;;;35.00;15.20;;;;;;;-6.30;78.42;98346.05;102784;1332;22593;-81
2021/12/26 09:28:59;;;;;;;33.40;13.00;;;;;;;-6.33;78.51;98343.30;102708;1327;22617;-81
2021/12/26 09:31:26;;;;;;;38.00;14.40;;;;;;;-6.36;78.76;98336.86;102877;1327;140237;-82
2021/12/26 09:33:52;;;;;;;41.90;14.90;;;;;;;-6.36;79.05;98341.63;102271;1324;22586;-82
2021/12/26 09:36:19;;;;;;;36.50;15.10;;;;;;;-6.32;78.96;98342.05;102232;1332;137736;-81
2021/12/26 09:38:46;;;;;;;36.90;15.10;;;;;;;-6.26;79.21;98342.69;102662;1324;22860;-81
2021/12/26 09:41:13;;;;;;;35.20;16.30;;;;;;;-6.20;79.25;98341.61;102573;1323;22609;-82
2021/12/26 09:43:39;;;;;;;29.70;14.20;;;;;;;-6.17;79.11;98336.39;102638;1324;139113;-82
2021/12/26 09:46:06;;;;;;;37.90;16.90;;;;;;;-6.11;79.38;98329.44;102406;1333;25566;-82
2021/12/26 09:48:32;;;;;;;32.50;15.00;;;;;;;-6.05;79.10;98328.36;102588;1327;138140;-82
2021/12/26 09:50:58;;;;;;;31.50;14.60;;;;;;;-5.99;79.03;98329.63;102810;1326;25421;-82
2021/12/26 09:53:26;;;;;;;38.70;15.90;;;;;;;-5.92;79.12;98327.36;102684;1330;25692;-82
2021/12/26 09:55:52;;;;;;;35.70;15.20;;;;;;;-5.85;78.96;98321.55;102702;1329;137820;-82
2021/12/26 09:58:21;;;;;;;35.70;14.00;;;;;;;-5.80;78.83;98320.20;102881;1325;22675;-83
2021/12/26 10:00:48;;;;;;;31.30;13.30;;;;;;;-5.74;78.99;98321.95;102609;1324;137813;-82
2021/12/26 10:03:16;;;;;;;25.40;10.20;;;;;;;-5.67;79.07;98324.68;102536;1330;23557;-83
2021/12/26 10:06:06;;;;;;;32.70;13.40;;;;;;;-5.63;79.21;98326.03;102892;1328;137798;-82
2021/12/26 10:08:34;;;;;;;35.00;13.50;;;;;;;-5.57;79.29;98322.83;102669;1327;22621;-83
2021/12/26 10:11:04;;;;;;;28.40;14.00;;;;;;;-5.54;78.71;98325.89;102603;1329;25276;-83
2021/12/26 10:13:58;;;;;;;31.80;13.90;;;;;;;-5.49;78.69;98321.14;102631;1328;138283;-82
2021/12/26 10:16:28;;;;;;;28.30;12.90;;;;;;;-5.40;78.57;98321.86;102539;1331;24273;-83
2021/12/26 10:18:56;;;;;;;31.80;14.40;;;;;;;-5.33;78.67;98319.64;103287;1324;138014;-83
2021/12/26 10:21:44;;;;;;;31.80;14.10;;;;;;;-5.28;78.55;98319.90;103246;1324;25365;-82
2021/12/26 10:24:21;;;;;;;35.20;15.90;;;;;;;-5.23;78.62;98318.70;102896;1329;138996;-83
2021/12/26 10:27:02;;;;;;;35.60;15.00;;;;;;;-5.21;78.32;98318.44;103173;1327;22612;-83
2021/12/26 10:29:33;;;;;;;31.60;12.90;;;;;;;-5.17;78.21;98318.81;103020;1327;22675;-82
2021/12/26 10:32:10;;;;;;;26.20;10.90;;;;;;;-5.14;78.21;98317.48;103146;1327;137549;-82
2021/12/26 10:34:57;;;;;;;26.00;9.70;;;;;;;-5.13;77.90;98317.40;102771;1324;22675;-82
2021/12/26 10:37:45;;;;;;;26.60;9.90;;;;;;;-5.10;78.19;98314.77;103072;1328;137830;-82
2021/12/26 10:40:16;;;;;;;29.30;12.10;;;;;;;-5.08;77.91;98313.49;103012;1324;22859;-82
2021/12/26 10:42:51;;;;;;;27.80;11.00;;;;;;;-5.04;78.09;98312.80;102722;1328;138794;-82
2021/12/26 10:45:21;;;;;;;26.50;11.20;;;;;;;-4.97;77.73;98318.95;102834;1332;24523;-81
2021/12/26 10:47:57;;;;;;;26.00;11.60;;;;;;;-4.89;77.69;98318.55;102928;1327;137829;-81
2021/12/26 10:50:26;;;;;;;27.10;12.00;;;;;;;-4.84;77.31;98319.63;103508;1327;22943;-81
2021/12/26 10:53:02;;;;;;;34.40;12.70;;;;;;;-4.79;77.58;98325.04;102988;1332;24332;-81
2021/12/26 10:55:35;;;;;;;35.20;12.40;;;;;;;-4.75;77.78;98321.84;102957;1325;137730;-81
2021/12/26 10:58:04;;;;;;;26.30;11.80;;;;;;;-4.73;77.42;98321.09;103067;1324;22692;-81
2021/12/26 11:00:32;;;;;;;34.30;13.40;;;;;;;-4.73;76.51;98317.57;103053;1324;138040;-81
2021/12/26 11:03:03;;;;;;;33.90;13.10;;;;;;;-4.76;76.32;98316.23;103407;1327;23366;-81
2021/12/26 11:05:38;;;;;;;31.80;12.70;;;;;;;-4.74;77.13;98316.77;102972;1332;22699;-81
2021/12/26 11:08:13;;;;;;;27.10;12.20;;;;;;;-4.71;77.19;98314.73;103030;1332;138050;-81
2021/12/26 11:10:48;;;;;;;31.50;14.00;;;;;;;-4.67;76.29;98321.41;103403;1327;23779;-80
2021/12/26 11:13:20;;;;;;;31.50;13.70;;;;;;;-4.63;76.72;98314.61;102851;1327;138047;-81
2021/12/26 11:15:49;;;;;;;25.20;11.90;;;;;;;-4.55;76.61;98314.23;103119;1327;22638;-81
2021/12/26 11:18:18;;;;;;;28.70;12.20;;;;;;;-4.49;76.37;98318.86;103036;1327;138606;-81
2021/12/26 11:20:51;;;;;;;32.20;12.00;;;;;;;-4.43;76.32;98317.15;103237;1327;22665;-81
2021/12/26 11:23:23;;;;;;;31.40;13.40;;;;;;;-4.34;76.29;98317.27;103294;1330;22750;-81
2021/12/26 11:25:53;;;;;;;32.30;15.00;;;;;;;-4.30;75.85;98317.55;103161;1328;137891;-81
2021/12/26 11:28:26;;;;;;;;;;;;;;;-4.26;75.54;98313.77;103024;1327;22583;-81
2021/12/26 11:30:55;;;;;;;28.90;14.30;;;;;;;-4.23;75.62;98313.56;103056;1328;123857;-81